NOZ33B EGKK-ENGM
Flight info
| Callsign | NOZ33B |
|---|---|
| Flight time | N/A |
| Altitude | 37000 |
| Route | FRANE M604 GIVPO DCT LARGA DCT TINAC DCT KARLI DCT RIVEX DCT OSKOM DCT RIPAM |
| Aircraft | B738/M-SDE2E3GHIJ1LRWXY/LB1 |
Departure
| Time | 2026-05-08 08:31 |
|---|---|
| Airport | London Gatwick Airport (EGKK) |
Arrival
| Time | N/A |
|---|---|
| Airport | Oslo-Gardermoen International Airport (ENGM) |
| Time | Latitude | Longitude | Altitude | Speed | Heading |
|---|---|---|---|---|---|
| 2026-05-08 07:57 | 51.15495 | -0.16903 | 203 ft | 0 kts | 348° |
| 2026-05-08 08:20 | 51.15466 | -0.16893 | 216 ft | 3 kts | 348° |
| 2026-05-08 08:20 | 51.15453 | -0.16888 | 212 ft | 4 kts | 330° |
| 2026-05-08 08:20 | 51.15443 | -0.16863 | 213 ft | 4 kts | 259° |
| 2026-05-08 08:21 | 51.15448 | -0.16826 | 214 ft | 2 kts | 257° |
| 2026-05-08 08:21 | 51.15449 | -0.16824 | 214 ft | 1 kts | 257° |
| 2026-05-08 08:24 | 51.15449 | -0.16825 | 203 ft | 1 kts | 257° |
| 2026-05-08 08:24 | 51.15443 | -0.16866 | 209 ft | 7 kts | 257° |
| 2026-05-08 08:24 | 51.15429 | -0.16966 | 205 ft | 12 kts | 257° |
| 2026-05-08 08:24 | 51.15406 | -0.17122 | 207 ft | 17 kts | 251° |
| 2026-05-08 08:25 | 51.15336 | -0.17240 | 203 ft | 14 kts | 172° |
| 2026-05-08 08:25 | 51.15242 | -0.17269 | 206 ft | 16 kts | 247° |
| 2026-05-08 08:25 | 51.15213 | -0.17471 | 205 ft | 21 kts | 258° |
| 2026-05-08 08:25 | 51.15178 | -0.17721 | 206 ft | 25 kts | 257° |
| 2026-05-08 08:26 | 51.15138 | -0.18010 | 208 ft | 28 kts | 257° |
| 2026-05-08 08:26 | 51.15092 | -0.18335 | 201 ft | 31 kts | 259° |
| 2026-05-08 08:26 | 51.15053 | -0.18626 | 212 ft | 27 kts | 257° |
| 2026-05-08 08:26 | 51.15010 | -0.18936 | 211 ft | 31 kts | 257° |
| 2026-05-08 08:27 | 51.14965 | -0.19264 | 210 ft | 27 kts | 258° |
| 2026-05-08 08:27 | 51.14924 | -0.19556 | 207 ft | 29 kts | 257° |
| 2026-05-08 08:27 | 51.14881 | -0.19870 | 209 ft | 28 kts | 258° |
| 2026-05-08 08:27 | 51.14839 | -0.20178 | 213 ft | 25 kts | 257° |
| 2026-05-08 08:28 | 51.14799 | -0.20463 | 212 ft | 28 kts | 257° |
| 2026-05-08 08:28 | 51.14753 | -0.20779 | 211 ft | 31 kts | 257° |
| 2026-05-08 08:28 | 51.14710 | -0.21102 | 209 ft | 29 kts | 258° |
| 2026-05-08 08:28 | 51.14650 | -0.21329 | 206 ft | 19 kts | 193° |
| 2026-05-08 08:29 | 51.14611 | -0.21325 | 205 ft | 0 kts | 168° |
| 2026-05-08 08:29 | 51.14607 | -0.21323 | 206 ft | 3 kts | 168° |
| 2026-05-08 08:30 | 51.14572 | -0.21309 | 205 ft | 8 kts | 159° |
| 2026-05-08 08:30 | 51.14519 | -0.21225 | 212 ft | 13 kts | 113° |
| 2026-05-08 08:30 | 51.14570 | -0.20805 | 209 ft | 64 kts | 77° |
| 2026-05-08 08:31 | 51.14715 | -0.19749 | 214 ft | 129 kts | 78° |
| 2026-05-08 08:31 | 51.14934 | -0.18105 | 416 ft | 162 kts | 77° |
| 2026-05-08 08:31 | 51.15177 | -0.16372 | 1207 ft | 161 kts | 80° |
| 2026-05-08 08:31 | 51.15420 | -0.14585 | 1887 ft | 170 kts | 81° |
| 2026-05-08 08:32 | 51.15692 | -0.12620 | 2347 ft | 192 kts | 81° |
| 2026-05-08 08:32 | 51.15985 | -0.10482 | 2924 ft | 203 kts | 81° |
| 2026-05-08 08:32 | 51.16308 | -0.08166 | 3214 ft | 223 kts | 80° |
| 2026-05-08 08:32 | 51.16655 | -0.05657 | 3612 ft | 235 kts | 80° |
| 2026-05-08 08:33 | 51.16934 | -0.03095 | 4119 ft | 240 kts | 90° |
| 2026-05-08 08:33 | 51.16889 | -0.00361 | 4457 ft | 258 kts | 94° |
| 2026-05-08 08:33 | 51.16811 | 0.02524 | 4936 ft | 262 kts | 94° |
| 2026-05-08 08:33 | 51.16742 | 0.05494 | 4908 ft | 268 kts | 94° |
| 2026-05-08 08:34 | 51.16683 | 0.08456 | 4904 ft | 266 kts | 93° |
| 2026-05-08 08:34 | 51.16627 | 0.11385 | 4890 ft | 263 kts | 93° |
| 2026-05-08 08:34 | 51.16572 | 0.14298 | 4890 ft | 263 kts | 93° |
| 2026-05-08 08:34 | 51.16539 | 0.17221 | 4871 ft | 264 kts | 91° |
| 2026-05-08 08:35 | 51.16549 | 0.20170 | 4875 ft | 265 kts | 91° |
| 2026-05-08 08:35 | 51.16564 | 0.23105 | 4865 ft | 266 kts | 91° |
| 2026-05-08 08:35 | 51.16606 | 0.26062 | 4875 ft | 270 kts | 83° |
| 2026-05-08 08:35 | 51.17402 | 0.28710 | 5406 ft | 275 kts | 48° |
| 2026-05-08 08:36 | 51.18778 | 0.30906 | 5815 ft | 281 kts | 46° |
| 2026-05-08 08:36 | 51.20174 | 0.33086 | 5871 ft | 279 kts | 46° |
| 2026-05-08 08:36 | 51.21528 | 0.35227 | 6200 ft | 272 kts | 46° |
| 2026-05-08 08:36 | 51.22877 | 0.37381 | 6549 ft | 276 kts | 46° |
| 2026-05-08 08:37 | 51.24247 | 0.39582 | 6922 ft | 282 kts | 46° |
| 2026-05-08 08:37 | 51.25629 | 0.41811 | 7250 ft | 283 kts | 46° |
| 2026-05-08 08:37 | 51.27015 | 0.44055 | 7600 ft | 284 kts | 46° |
| 2026-05-08 08:37 | 51.28407 | 0.46315 | 7967 ft | 285 kts | 46° |
| 2026-05-08 08:38 | 51.29794 | 0.48571 | 8335 ft | 285 kts | 45° |
| 2026-05-08 08:38 | 51.31192 | 0.50847 | 8713 ft | 287 kts | 45° |
| 2026-05-08 08:38 | 51.32798 | 0.52680 | 9113 ft | 287 kts | 21° |
| 2026-05-08 08:38 | 51.34683 | 0.53793 | 9973 ft | 289 kts | 18° |
| 2026-05-08 08:39 | 51.36572 | 0.54856 | 10607 ft | 295 kts | 18° |
| 2026-05-08 08:39 | 51.38524 | 0.55968 | 11216 ft | 302 kts | 18° |
| 2026-05-08 08:39 | 51.40521 | 0.57130 | 11923 ft | 306 kts | 19° |
| 2026-05-08 08:39 | 51.42532 | 0.58321 | 12639 ft | 311 kts | 19° |
| 2026-05-08 08:40 | 51.44586 | 0.59553 | 13318 ft | 317 kts | 20° |
| 2026-05-08 08:40 | 51.46607 | 0.60777 | 14032 ft | 322 kts | 20° |
| 2026-05-08 08:40 | 51.48433 | 0.61889 | 14623 ft | 325 kts | 20° |
| 2026-05-08 08:40 | 51.50540 | 0.63178 | 15310 ft | 329 kts | 20° |
| 2026-05-08 08:41 | 51.52693 | 0.64499 | 16003 ft | 333 kts | 20° |
| 2026-05-08 08:41 | 51.54877 | 0.65841 | 16703 ft | 338 kts | 21° |
| 2026-05-08 08:41 | 51.57076 | 0.67196 | 17386 ft | 342 kts | 21° |
| 2026-05-08 08:41 | 51.59320 | 0.68579 | 18063 ft | 347 kts | 21° |
| 2026-05-08 08:42 | 51.61591 | 0.69982 | 18730 ft | 350 kts | 21° |
| 2026-05-08 08:42 | 51.63874 | 0.71393 | 19398 ft | 352 kts | 21° |
| 2026-05-08 08:42 | 51.66166 | 0.72811 | 20053 ft | 354 kts | 20° |
| 2026-05-08 08:42 | 51.68487 | 0.74249 | 20664 ft | 358 kts | 20° |
| 2026-05-08 08:43 | 51.70786 | 0.75674 | 21312 ft | 359 kts | 20° |
| 2026-05-08 08:43 | 51.73124 | 0.77126 | 21972 ft | 361 kts | 20° |
| 2026-05-08 08:43 | 51.75476 | 0.78587 | 22603 ft | 363 kts | 20° |
| 2026-05-08 08:43 | 51.77846 | 0.80062 | 23216 ft | 366 kts | 20° |
| 2026-05-08 08:44 | 51.80240 | 0.81553 | 23788 ft | 369 kts | 20° |
| 2026-05-08 08:44 | 51.82652 | 0.83056 | 24243 ft | 373 kts | 20° |
| 2026-05-08 08:44 | 51.85082 | 0.84630 | 24740 ft | 376 kts | 25° |
| 2026-05-08 08:44 | 51.87327 | 0.86737 | 25209 ft | 380 kts | 36° |
| 2026-05-08 08:45 | 51.89372 | 0.89504 | 25672 ft | 383 kts | 42° |
| 2026-05-08 08:45 | 51.91350 | 0.92441 | 26136 ft | 386 kts | 43° |
| 2026-05-08 08:45 | 51.93325 | 0.95407 | 26569 ft | 390 kts | 43° |
| 2026-05-08 08:45 | 51.95333 | 0.98407 | 27039 ft | 392 kts | 42° |
| 2026-05-08 08:46 | 51.97331 | 1.01368 | 27492 ft | 395 kts | 42° |
| 2026-05-08 08:46 | 51.99374 | 1.04376 | 27919 ft | 398 kts | 42° |
| 2026-05-08 08:46 | 52.01443 | 1.07415 | 28366 ft | 400 kts | 42° |
| 2026-05-08 08:46 | 52.03520 | 1.10469 | 28799 ft | 403 kts | 42° |
| 2026-05-08 08:47 | 52.05600 | 1.13465 | 29224 ft | 405 kts | 39° |
| 2026-05-08 08:47 | 52.07844 | 1.16258 | 29654 ft | 407 kts | 36° |
| 2026-05-08 08:47 | 52.10151 | 1.18972 | 30035 ft | 411 kts | 36° |
| 2026-05-08 08:47 | 52.12473 | 1.21724 | 30359 ft | 414 kts | 37° |
| 2026-05-08 08:48 | 52.14734 | 1.24649 | 30693 ft | 416 kts | 39° |
| 2026-05-08 08:48 | 52.16961 | 1.27689 | 31031 ft | 418 kts | 40° |
| 2026-05-08 08:48 | 52.19190 | 1.30774 | 31363 ft | 420 kts | 40° |
| 2026-05-08 08:48 | 52.21395 | 1.33819 | 31681 ft | 422 kts | 40° |
| 2026-05-08 08:49 | 52.23648 | 1.36912 | 31994 ft | 424 kts | 39° |
| 2026-05-08 08:49 | 52.25920 | 1.40015 | 32285 ft | 426 kts | 39° |
| 2026-05-08 08:49 | 52.28207 | 1.43132 | 32560 ft | 429 kts | 39° |
| 2026-05-08 08:49 | 52.30510 | 1.46272 | 32821 ft | 432 kts | 39° |
| 2026-05-08 08:50 | 52.32826 | 1.49435 | 33087 ft | 434 kts | 39° |
| 2026-05-08 08:50 | 52.35081 | 1.52746 | 33363 ft | 436 kts | 44° |
| 2026-05-08 08:50 | 52.37221 | 1.56287 | 33653 ft | 438 kts | 46° |
| 2026-05-08 08:50 | 52.39327 | 1.59921 | 33920 ft | 440 kts | 46° |
| 2026-05-08 08:51 | 52.41410 | 1.63540 | 34156 ft | 442 kts | 46° |
| 2026-05-08 08:51 | 52.43538 | 1.67212 | 34351 ft | 444 kts | 46° |
| 2026-05-08 08:51 | 52.45680 | 1.70877 | 34549 ft | 446 kts | 45° |
| 2026-05-08 08:51 | 52.47846 | 1.74561 | 34747 ft | 448 kts | 45° |
| 2026-05-08 08:52 | 52.50017 | 1.78247 | 34954 ft | 450 kts | 45° |
| 2026-05-08 08:52 | 52.52168 | 1.81900 | 35162 ft | 451 kts | 45° |
| 2026-05-08 08:52 | 52.54353 | 1.85619 | 35343 ft | 453 kts | 45° |
| 2026-05-08 08:52 | 52.56545 | 1.89346 | 35525 ft | 455 kts | 44° |
| 2026-05-08 08:53 | 52.58884 | 1.92860 | 35695 ft | 456 kts | 39° |
| 2026-05-08 08:53 | 52.61347 | 1.96168 | 35870 ft | 457 kts | 37° |
| 2026-05-08 08:53 | 52.63859 | 1.99420 | 36047 ft | 458 kts | 37° |
| 2026-05-08 08:53 | 52.66346 | 2.02622 | 36229 ft | 460 kts | 37° |
| 2026-05-08 08:54 | 52.68861 | 2.05886 | 36458 ft | 460 kts | 37° |
| 2026-05-08 08:54 | 52.71366 | 2.09173 | 36717 ft | 459 kts | 37° |
| 2026-05-08 08:54 | 52.73859 | 2.12475 | 36943 ft | 459 kts | 37° |
| 2026-05-08 08:54 | 52.76350 | 2.15799 | 37132 ft | 460 kts | 38° |
| 2026-05-08 08:55 | 52.81322 | 2.22466 | 37144 ft | 463 kts | 38° |
| 2026-05-08 08:55 | 52.86305 | 2.29175 | 37138 ft | 459 kts | 38° |
| 2026-05-08 08:56 | 52.91219 | 2.35807 | 37135 ft | 456 kts | 38° |
| 2026-05-08 08:56 | 52.96123 | 2.42442 | 37138 ft | 454 kts | 38° |
| 2026-05-08 08:57 | 53.01017 | 2.49083 | 37151 ft | 453 kts | 38° |
| 2026-05-08 08:57 | 53.05874 | 2.55694 | 37142 ft | 454 kts | 38° |
| 2026-05-08 08:58 | 53.10778 | 2.62389 | 37149 ft | 456 kts | 38° |
| 2026-05-08 08:58 | 53.15696 | 2.69125 | 37148 ft | 458 kts | 38° |
| 2026-05-08 08:59 | 53.20612 | 2.75879 | 37146 ft | 460 kts | 38° |
| 2026-05-08 08:59 | 53.25584 | 2.82728 | 37149 ft | 463 kts | 38° |
| 2026-05-08 09:00 | 53.30815 | 2.88863 | 37135 ft | 461 kts | 24° |
| 2026-05-08 09:00 | 53.36642 | 2.93401 | 37138 ft | 462 kts | 22° |
| 2026-05-08 09:01 | 53.42511 | 2.97860 | 37137 ft | 462 kts | 23° |
| 2026-05-08 09:01 | 53.48306 | 3.02352 | 37133 ft | 461 kts | 23° |
| 2026-05-08 09:02 | 53.54131 | 3.06937 | 37131 ft | 460 kts | 23° |
| 2026-05-08 09:02 | 53.59896 | 3.11506 | 37130 ft | 459 kts | 23° |
| 2026-05-08 09:03 | 53.65667 | 3.16092 | 37139 ft | 458 kts | 23° |
| 2026-05-08 09:03 | 53.71404 | 3.20663 | 37159 ft | 457 kts | 24° |
| 2026-05-08 09:04 | 53.77146 | 3.25251 | 37148 ft | 456 kts | 24° |
| 2026-05-08 09:04 | 53.82882 | 3.29847 | 37158 ft | 455 kts | 24° |
| 2026-05-08 09:05 | 53.88616 | 3.34457 | 37158 ft | 455 kts | 24° |
| 2026-05-08 09:05 | 53.94340 | 3.39072 | 37164 ft | 455 kts | 24° |
| 2026-05-08 09:06 | 54.00039 | 3.43681 | 37179 ft | 456 kts | 24° |
| 2026-05-08 09:06 | 54.05778 | 3.48336 | 37172 ft | 457 kts | 24° |
| 2026-05-08 09:07 | 54.11523 | 3.53011 | 37177 ft | 457 kts | 24° |
| 2026-05-08 09:07 | 54.17247 | 3.57683 | 37173 ft | 458 kts | 24° |
| 2026-05-08 09:08 | 54.22033 | 3.61601 | 37182 ft | 459 kts | 24° |
| 2026-05-08 09:08 | 54.27811 | 3.66344 | 37174 ft | 459 kts | 24° |
| 2026-05-08 09:09 | 54.33544 | 3.71066 | 37174 ft | 460 kts | 24° |
| 2026-05-08 09:09 | 54.39310 | 3.75829 | 37176 ft | 460 kts | 24° |
| 2026-05-08 09:10 | 54.45081 | 3.80611 | 37186 ft | 460 kts | 24° |
| 2026-05-08 09:10 | 54.50818 | 3.85380 | 37178 ft | 460 kts | 24° |
| 2026-05-08 09:11 | 54.56582 | 3.90187 | 37180 ft | 459 kts | 24° |
| 2026-05-08 09:11 | 54.62345 | 3.95007 | 37184 ft | 459 kts | 24° |
| 2026-05-08 09:12 | 54.68062 | 3.99806 | 37182 ft | 458 kts | 24° |
| 2026-05-08 09:12 | 54.73808 | 4.04643 | 37183 ft | 458 kts | 24° |
| 2026-05-08 09:13 | 54.79545 | 4.09488 | 37183 ft | 458 kts | 24° |
| 2026-05-08 09:13 | 54.85246 | 4.14317 | 37183 ft | 457 kts | 24° |
| 2026-05-08 09:14 | 54.90680 | 4.18125 | 37204 ft | 448 kts | 17° |
| 2026-05-08 09:14 | 54.96636 | 4.21523 | 37195 ft | 455 kts | 16° |
| 2026-05-08 09:15 | 55.02675 | 4.24957 | 37189 ft | 460 kts | 17° |
| 2026-05-08 09:15 | 55.08780 | 4.28534 | 37184 ft | 462 kts | 17° |
| 2026-05-08 09:16 | 55.14872 | 4.32162 | 37181 ft | 463 kts | 17° |
| 2026-05-08 09:16 | 55.20936 | 4.35796 | 37191 ft | 463 kts | 17° |
| 2026-05-08 09:17 | 55.27022 | 4.39452 | 37186 ft | 462 kts | 17° |
| 2026-05-08 09:17 | 55.33099 | 4.43111 | 37182 ft | 460 kts | 17° |
| 2026-05-08 09:18 | 55.39148 | 4.46765 | 37188 ft | 459 kts | 17° |
| 2026-05-08 09:18 | 55.45179 | 4.50419 | 37198 ft | 457 kts | 18° |
| 2026-05-08 09:19 | 55.51158 | 4.54054 | 37192 ft | 456 kts | 18° |
| 2026-05-08 09:19 | 55.57159 | 4.57714 | 37194 ft | 456 kts | 18° |
| 2026-05-08 09:20 | 55.63120 | 4.61361 | 37194 ft | 455 kts | 18° |
| 2026-05-08 09:20 | 55.69125 | 4.65048 | 37194 ft | 456 kts | 18° |
| 2026-05-08 09:21 | 55.75144 | 4.68755 | 37197 ft | 457 kts | 18° |
| 2026-05-08 09:23 | 55.96207 | 4.81822 | 37197 ft | 460 kts | 18° |
| 2026-05-08 09:23 | 56.02236 | 4.85591 | 37203 ft | 461 kts | 18° |
| 2026-05-08 09:24 | 56.08300 | 4.89394 | 37203 ft | 462 kts | 18° |
| 2026-05-08 09:24 | 56.14377 | 4.93218 | 37201 ft | 462 kts | 18° |
| 2026-05-08 09:25 | 56.20453 | 4.97055 | 37206 ft | 462 kts | 18° |
| 2026-05-08 09:25 | 56.26492 | 5.00889 | 37202 ft | 462 kts | 19° |
| 2026-05-08 09:26 | 56.32534 | 5.04885 | 37207 ft | 462 kts | 19° |
| 2026-05-08 09:26 | 56.38573 | 5.08941 | 37206 ft | 462 kts | 19° |
| 2026-05-08 09:27 | 56.44606 | 5.12991 | 37210 ft | 461 kts | 19° |
| 2026-05-08 09:27 | 56.50598 | 5.17016 | 37210 ft | 461 kts | 20° |
| 2026-05-08 09:28 | 56.56622 | 5.21071 | 37211 ft | 461 kts | 20° |
| 2026-05-08 09:28 | 56.62647 | 5.25142 | 37212 ft | 461 kts | 20° |
| 2026-05-08 09:29 | 56.68630 | 5.29199 | 37213 ft | 461 kts | 20° |
| 2026-05-08 09:29 | 56.74653 | 5.33296 | 37216 ft | 462 kts | 20° |
| 2026-05-08 09:30 | 56.80683 | 5.37413 | 37216 ft | 462 kts | 20° |
| 2026-05-08 09:30 | 56.86711 | 5.41543 | 37222 ft | 463 kts | 20° |
| 2026-05-08 09:31 | 56.92750 | 5.45695 | 37222 ft | 463 kts | 20° |
| 2026-05-08 09:31 | 56.98772 | 5.49847 | 37221 ft | 464 kts | 20° |
| 2026-05-08 09:32 | 57.04832 | 5.54041 | 37217 ft | 465 kts | 20° |
| 2026-05-08 09:32 | 57.10865 | 5.58229 | 37219 ft | 466 kts | 20° |
| 2026-05-08 09:33 | 57.16952 | 5.62471 | 37220 ft | 467 kts | 20° |
| 2026-05-08 09:33 | 57.22991 | 5.66694 | 37220 ft | 467 kts | 20° |
| 2026-05-08 09:34 | 57.29083 | 5.70969 | 37214 ft | 468 kts | 21° |
| 2026-05-08 09:34 | 57.35178 | 5.75262 | 37225 ft | 468 kts | 21° |
| 2026-05-08 09:35 | 57.41247 | 5.79552 | 37220 ft | 469 kts | 21° |
| 2026-05-08 09:35 | 57.47353 | 5.83883 | 37224 ft | 469 kts | 21° |
| 2026-05-08 09:36 | 57.53417 | 5.88200 | 37225 ft | 469 kts | 21° |
| 2026-05-08 09:36 | 57.59540 | 5.92574 | 37225 ft | 469 kts | 21° |
| 2026-05-08 09:37 | 57.65619 | 5.96933 | 37223 ft | 470 kts | 21° |
| 2026-05-08 09:37 | 57.71724 | 6.01326 | 37224 ft | 470 kts | 21° |
| 2026-05-08 09:38 | 57.77830 | 6.05736 | 37220 ft | 470 kts | 21° |
| 2026-05-08 09:38 | 57.83889 | 6.10128 | 37222 ft | 470 kts | 21° |
| 2026-05-08 09:39 | 57.89985 | 6.14563 | 37234 ft | 470 kts | 21° |
| 2026-05-08 09:39 | 57.96086 | 6.19018 | 37230 ft | 470 kts | 21° |
| 2026-05-08 09:40 | 58.02178 | 6.23481 | 37227 ft | 470 kts | 21° |
| 2026-05-08 09:40 | 58.08247 | 6.27946 | 37231 ft | 470 kts | 21° |
| 2026-05-08 09:41 | 58.14340 | 6.32443 | 37226 ft | 470 kts | 21° |
| 2026-05-08 09:41 | 58.20415 | 6.36945 | 37226 ft | 470 kts | 21° |
| 2026-05-08 09:42 | 58.26527 | 6.41491 | 37223 ft | 470 kts | 21° |
| 2026-05-08 09:42 | 58.32626 | 6.46043 | 37229 ft | 471 kts | 21° |
| 2026-05-08 09:43 | 58.38627 | 6.50841 | 37205 ft | 471 kts | 31° |
| 2026-05-08 09:43 | 58.41273 | 6.54505 | 37231 ft | 468 kts | 44° |
| 2026-05-08 09:43 | 58.43475 | 6.59050 | 37214 ft | 466 kts | 56° |
| 2026-05-08 09:44 | 58.46763 | 6.69622 | 37212 ft | 463 kts | 63° |
| 2026-05-08 09:44 | 58.49892 | 6.80343 | 37226 ft | 464 kts | 63° |
| 2026-05-08 09:45 | 58.53074 | 6.91140 | 37200 ft | 465 kts | 63° |
| 2026-05-08 09:45 | 58.56280 | 7.01936 | 37214 ft | 466 kts | 63° |
| 2026-05-08 09:46 | 58.59459 | 7.12651 | 37220 ft | 466 kts | 63° |
| 2026-05-08 09:46 | 58.62655 | 7.23469 | 37215 ft | 465 kts | 63° |
| 2026-05-08 09:47 | 58.66388 | 7.33631 | 37216 ft | 468 kts | 46° |
| 2026-05-08 09:47 | 58.71008 | 7.42338 | 37215 ft | 468 kts | 46° |
| 2026-05-08 09:48 | 58.75654 | 7.51157 | 37211 ft | 467 kts | 46° |
| 2026-05-08 09:48 | 58.80230 | 7.59971 | 37202 ft | 467 kts | 46° |
| 2026-05-08 09:49 | 58.84811 | 7.68871 | 37214 ft | 466 kts | 46° |
| 2026-05-08 09:49 | 58.89361 | 7.77756 | 37208 ft | 461 kts | 46° |
| 2026-05-08 09:49 | 58.91569 | 7.82078 | 37192 ft | 447 kts | 46° |
| 2026-05-08 09:50 | 58.93724 | 7.86302 | 37187 ft | 433 kts | 47° |
| 2026-05-08 09:50 | 58.95806 | 7.90391 | 37201 ft | 420 kts | 47° |
| 2026-05-08 09:50 | 58.97829 | 7.94371 | 37194 ft | 410 kts | 47° |
| 2026-05-08 09:51 | 59.01853 | 8.02319 | 37023 ft | 417 kts | 47° |
| 2026-05-08 09:51 | 59.03869 | 8.06312 | 36265 ft | 422 kts | 47° |
| 2026-05-08 09:51 | 59.05948 | 8.10438 | 35155 ft | 432 kts | 48° |
| 2026-05-08 09:51 | 59.08086 | 8.14690 | 34127 ft | 441 kts | 48° |
| 2026-05-08 09:52 | 59.10206 | 8.18911 | 33274 ft | 441 kts | 48° |
| 2026-05-08 09:52 | 59.12341 | 8.23164 | 32702 ft | 434 kts | 48° |
| 2026-05-08 09:52 | 59.14433 | 8.27336 | 32178 ft | 427 kts | 48° |
| 2026-05-08 09:52 | 59.16500 | 8.31467 | 31625 ft | 421 kts | 48° |
| 2026-05-08 09:53 | 59.18527 | 8.35526 | 31195 ft | 412 kts | 48° |
| 2026-05-08 09:53 | 59.19845 | 8.38168 | 30940 ft | 407 kts | 48° |
| 2026-05-08 09:53 | 59.21813 | 8.42122 | 30584 ft | 404 kts | 48° |
| 2026-05-08 09:53 | 59.24398 | 8.47335 | 30089 ft | 401 kts | 48° |
| 2026-05-08 09:54 | 59.26335 | 8.51248 | 29695 ft | 398 kts | 48° |
| 2026-05-08 09:54 | 59.27634 | 8.53877 | 29446 ft | 395 kts | 48° |
| 2026-05-08 09:54 | 59.29515 | 8.57688 | 29063 ft | 392 kts | 48° |
| 2026-05-08 09:54 | 59.31406 | 8.61523 | 28706 ft | 389 kts | 48° |
| 2026-05-08 09:55 | 59.33908 | 8.66608 | 28231 ft | 384 kts | 47° |
| 2026-05-08 09:55 | 59.35140 | 8.69117 | 27982 ft | 383 kts | 47° |
| 2026-05-08 09:55 | 59.36986 | 8.72882 | 27590 ft | 382 kts | 47° |
| 2026-05-08 09:55 | 59.38794 | 8.76573 | 27266 ft | 378 kts | 47° |
| 2026-05-08 09:56 | 59.40609 | 8.80282 | 26997 ft | 375 kts | 47° |
| 2026-05-08 09:56 | 59.42420 | 8.83990 | 26742 ft | 374 kts | 47° |
| 2026-05-08 09:56 | 59.44210 | 8.87661 | 26431 ft | 370 kts | 47° |
| 2026-05-08 09:56 | 59.45991 | 8.91320 | 26087 ft | 369 kts | 47° |
| 2026-05-08 09:57 | 59.49498 | 8.98546 | 25407 ft | 366 kts | 47° |
| 2026-05-08 09:57 | 59.51249 | 9.02164 | 25059 ft | 364 kts | 47° |
| 2026-05-08 09:57 | 59.53002 | 9.05789 | 24713 ft | 363 kts | 47° |
| 2026-05-08 09:58 | 59.54746 | 9.09402 | 24373 ft | 362 kts | 47° |
| 2026-05-08 09:58 | 59.56473 | 9.12987 | 24034 ft | 360 kts | 47° |
| 2026-05-08 09:58 | 59.58181 | 9.16537 | 23665 ft | 360 kts | 47° |
| 2026-05-08 09:58 | 59.59905 | 9.20127 | 23243 ft | 359 kts | 47° |
| 2026-05-08 09:59 | 59.61617 | 9.23696 | 22913 ft | 357 kts | 47° |
| 2026-05-08 09:59 | 59.63320 | 9.27252 | 22549 ft | 355 kts | 47° |
| 2026-05-08 09:59 | 59.65017 | 9.30803 | 22224 ft | 352 kts | 47° |
| 2026-05-08 09:59 | 59.66678 | 9.34283 | 21879 ft | 351 kts | 47° |
| 2026-05-08 10:00 | 59.68347 | 9.37785 | 21511 ft | 349 kts | 47° |
| 2026-05-08 10:00 | 59.70009 | 9.41279 | 21183 ft | 347 kts | 47° |
| 2026-05-08 10:00 | 59.71665 | 9.44763 | 20850 ft | 345 kts | 48° |
| 2026-05-08 10:00 | 59.73310 | 9.48232 | 20510 ft | 344 kts | 48° |
| 2026-05-08 10:01 | 59.74944 | 9.51682 | 20181 ft | 342 kts | 48° |
| 2026-05-08 10:01 | 59.76553 | 9.55084 | 19859 ft | 341 kts | 48° |
| 2026-05-08 10:01 | 59.78176 | 9.58521 | 19526 ft | 339 kts | 48° |
| 2026-05-08 10:01 | 59.79789 | 9.61942 | 19207 ft | 338 kts | 48° |
| 2026-05-08 10:02 | 59.81399 | 9.65362 | 18871 ft | 337 kts | 48° |
| 2026-05-08 10:02 | 59.82995 | 9.68759 | 18562 ft | 337 kts | 48° |
| 2026-05-08 10:02 | 59.84587 | 9.72153 | 18184 ft | 336 kts | 48° |
| 2026-05-08 10:02 | 59.86160 | 9.75509 | 17834 ft | 335 kts | 48° |
| 2026-05-08 10:03 | 59.87745 | 9.78895 | 17485 ft | 333 kts | 48° |
| 2026-05-08 10:03 | 59.89318 | 9.82260 | 17182 ft | 330 kts | 48° |
| 2026-05-08 10:03 | 59.90887 | 9.85626 | 16849 ft | 329 kts | 48° |
| 2026-05-08 10:03 | 59.92433 | 9.88944 | 16367 ft | 333 kts | 48° |
| 2026-05-08 10:04 | 59.94005 | 9.92323 | 16005 ft | 332 kts | 48° |
| 2026-05-08 10:04 | 59.95573 | 9.95699 | 15655 ft | 331 kts | 48° |
| 2026-05-08 10:04 | 59.97132 | 9.99060 | 15333 ft | 330 kts | 48° |
| 2026-05-08 10:04 | 59.98685 | 10.02416 | 15015 ft | 328 kts | 48° |
| 2026-05-08 10:05 | 60.00234 | 10.05766 | 14718 ft | 326 kts | 48° |
| 2026-05-08 10:05 | 60.01778 | 10.09108 | 14375 ft | 325 kts | 48° |
| 2026-05-08 10:05 | 60.03307 | 10.12424 | 14068 ft | 323 kts | 48° |
| 2026-05-08 10:05 | 60.04809 | 10.15688 | 13723 ft | 322 kts | 48° |
| 2026-05-08 10:06 | 60.06321 | 10.18976 | 13396 ft | 320 kts | 49° |
| 2026-05-08 10:06 | 60.07831 | 10.22266 | 13055 ft | 319 kts | 49° |
| 2026-05-08 10:06 | 60.09329 | 10.25537 | 12736 ft | 317 kts | 49° |
| 2026-05-08 10:06 | 60.10821 | 10.28802 | 12422 ft | 316 kts | 49° |
| 2026-05-08 10:07 | 60.12308 | 10.32048 | 12107 ft | 314 kts | 49° |
| 2026-05-08 10:07 | 60.13766 | 10.35235 | 11795 ft | 314 kts | 49° |
| 2026-05-08 10:07 | 60.15232 | 10.38446 | 11495 ft | 312 kts | 49° |
| 2026-05-08 10:07 | 60.16700 | 10.41676 | 11176 ft | 312 kts | 50° |
| 2026-05-08 10:08 | 60.18155 | 10.44883 | 10874 ft | 310 kts | 50° |
| 2026-05-08 10:08 | 60.19585 | 10.48037 | 10590 ft | 308 kts | 50° |
| 2026-05-08 10:08 | 60.21044 | 10.51258 | 10284 ft | 307 kts | 50° |
| 2026-05-08 10:08 | 60.22458 | 10.54384 | 10102 ft | 302 kts | 50° |
| 2026-05-08 10:09 | 60.23855 | 10.57474 | 9920 ft | 295 kts | 50° |
| 2026-05-08 10:09 | 60.25232 | 10.60525 | 9616 ft | 294 kts | 50° |
| 2026-05-08 10:09 | 60.26604 | 10.63570 | 9360 ft | 292 kts | 50° |
| 2026-05-08 10:09 | 60.27968 | 10.66612 | 9042 ft | 291 kts | 50° |
| 2026-05-08 10:10 | 60.29279 | 10.69672 | 8787 ft | 290 kts | 51° |
| 2026-05-08 10:10 | 60.30637 | 10.72677 | 8493 ft | 289 kts | 50° |
| 2026-05-08 10:10 | 60.31981 | 10.75626 | 8248 ft | 286 kts | 50° |
| 2026-05-08 10:10 | 60.33320 | 10.78579 | 7982 ft | 285 kts | 50° |
| 2026-05-08 10:11 | 60.34646 | 10.81543 | 7687 ft | 284 kts | 49° |
| 2026-05-08 10:11 | 60.35979 | 10.84508 | 7406 ft | 283 kts | 49° |
| 2026-05-08 10:11 | 60.37293 | 10.87442 | 7153 ft | 280 kts | 49° |
| 2026-05-08 10:11 | 60.38602 | 10.90376 | 6903 ft | 281 kts | 49° |
| 2026-05-08 10:12 | 60.39911 | 10.93312 | 6599 ft | 281 kts | 50° |
| 2026-05-08 10:12 | 60.41206 | 10.96238 | 6300 ft | 280 kts | 49° |
| 2026-05-08 10:12 | 60.42484 | 10.99110 | 6111 ft | 273 kts | 49° |
| 2026-05-08 10:12 | 60.43725 | 11.01905 | 6003 ft | 261 kts | 50° |
| 2026-05-08 10:13 | 60.44906 | 11.04665 | 5888 ft | 252 kts | 56° |
| 2026-05-08 10:13 | 60.45523 | 11.07806 | 5794 ft | 240 kts | 91° |
| 2026-05-08 10:13 | 60.45232 | 11.11033 | 5686 ft | 230 kts | 118° |
| 2026-05-08 10:13 | 60.44432 | 11.13851 | 5481 ft | 231 kts | 134° |
| 2026-05-08 10:14 | 60.43416 | 11.16202 | 5290 ft | 220 kts | 136° |
| 2026-05-08 10:14 | 60.42420 | 11.18493 | 5016 ft | 212 kts | 136° |
| 2026-05-08 10:14 | 60.41458 | 11.20724 | 4780 ft | 208 kts | 136° |
| 2026-05-08 10:14 | 60.40466 | 11.22777 | 4540 ft | 200 kts | 152° |
| 2026-05-08 10:15 | 60.39180 | 11.23293 | 4366 ft | 189 kts | 193° |
| 2026-05-08 10:15 | 60.37922 | 11.22531 | 4140 ft | 190 kts | 190° |
| 2026-05-08 10:15 | 60.36603 | 11.22343 | 4036 ft | 190 kts | 194° |
| 2026-05-08 10:15 | 60.35454 | 11.21122 | 3858 ft | 194 kts | 211° |
| 2026-05-08 10:16 | 60.34229 | 11.20121 | 3736 ft | 187 kts | 191° |
| 2026-05-08 10:16 | 60.32914 | 11.19624 | 3442 ft | 185 kts | 191° |
| 2026-05-08 10:16 | 60.31684 | 11.18911 | 3117 ft | 184 kts | 198° |
| 2026-05-08 10:16 | 60.30475 | 11.18205 | 2868 ft | 177 kts | 194° |
| 2026-05-08 10:17 | 60.29317 | 11.17566 | 2652 ft | 169 kts | 195° |
| 2026-05-08 10:17 | 60.28212 | 11.16929 | 2414 ft | 158 kts | 195° |
| 2026-05-08 10:17 | 60.27858 | 11.16724 | 2332 ft | 155 kts | 195° |
| 2026-05-08 10:17 | 60.26152 | 11.15737 | 1966 ft | 149 kts | 196° |